createdAt,value
2022-08-11T00:00:02.092Z,2.10
2022-08-11T00:05:15.115Z,2.30
2022-08-11T00:10:23.325Z,2.00
2022-08-11T00:15:29.468Z,2.20
2022-08-11T00:20:35.006Z,2.47
2022-08-11T00:25:46.392Z,2.43
2022-08-11T00:30:50.485Z,2.13
2022-08-11T00:35:59.699Z,2.30
2022-08-11T00:41:14.870Z,2.53
2022-08-11T00:46:26.692Z,2.30
2022-08-11T00:52:05.159Z,2.40
2022-08-11T00:57:37.273Z,2.87
2022-08-11T01:03:15.038Z,3.23
2022-08-11T01:08:21.018Z,2.83
2022-08-11T01:14:15.137Z,3.10
2022-08-11T01:20:45.933Z,2.87
2022-08-11T01:25:57.101Z,2.67
2022-08-11T01:31:23.763Z,2.67
2022-08-11T01:36:57.274Z,2.87
2022-08-11T01:42:50.019Z,2.93
2022-08-11T01:48:22.651Z,2.70
2022-08-11T01:53:37.264Z,3.00
2022-08-11T01:59:26.039Z,2.97
2022-08-11T02:04:42.237Z,2.50
2022-08-11T02:09:56.499Z,2.80
2022-08-11T02:15:26.305Z,2.63
2022-08-11T02:21:07.077Z,2.53
2022-08-11T02:26:11.921Z,2.63
2022-08-11T02:32:24.342Z,2.83
2022-08-11T02:37:29.001Z,3.10
2022-08-11T02:42:47.315Z,3.23
2022-08-11T02:48:22.070Z,3.10
2022-08-11T02:53:43.503Z,3.20
2022-08-11T02:59:28.545Z,3.10
2022-08-11T03:04:57.498Z,3.20
2022-08-11T03:10:21.412Z,3.30
2022-08-11T03:16:06.641Z,3.00
2022-08-11T03:21:09.276Z,3.47
2022-08-11T03:26:43.163Z,3.30
2022-08-11T03:32:10.113Z,3.80
2022-08-11T03:37:50.502Z,3.60
2022-08-11T03:43:07.985Z,3.63
2022-08-11T03:48:28.102Z,3.40
2022-08-11T03:54:01.973Z,3.73
2022-08-11T03:59:21.024Z,3.73
2022-08-11T04:04:51.361Z,4.00
2022-08-11T04:10:28.234Z,3.90
2022-08-11T04:16:11.304Z,4.23
2022-08-11T04:21:42.433Z,4.17
2022-08-11T04:27:00.004Z,3.90
2022-08-11T04:32:29.911Z,3.77
2022-08-11T04:37:59.092Z,3.77
2022-08-11T04:43:22.853Z,3.90
2022-08-11T04:49:06.155Z,3.93
2022-08-11T04:55:01.642Z,3.30
2022-08-11T05:00:29.115Z,3.70
2022-08-11T05:06:02.411Z,3.80
2022-08-11T05:11:36.144Z,3.40
2022-08-11T05:17:01.488Z,3.40
2022-08-11T05:22:30.507Z,4.00
2022-08-11T05:28:02.788Z,3.60
2022-08-11T05:33:29.306Z,3.43
2022-08-11T05:38:54.873Z,3.57
2022-08-11T05:44:22.651Z,4.07
2022-08-11T05:49:49.070Z,4.20
2022-08-11T05:55:10.820Z,3.90
2022-08-11T06:00:15.212Z,4.20
2022-08-11T06:05:43.686Z,4.53
2022-08-11T06:10:47.643Z,3.90
2022-08-11T06:15:52.528Z,4.30
2022-08-11T06:20:57.940Z,3.40
2022-08-11T06:26:01.700Z,4.20
2022-08-11T06:31:14.185Z,3.80
2022-08-11T06:36:25.892Z,4.70
2022-08-11T06:41:44.503Z,3.83
2022-08-11T06:46:51.115Z,3.53
2022-08-11T06:52:01.644Z,4.07
2022-08-11T06:57:29.837Z,3.67
2022-08-11T07:02:53.499Z,4.07
2022-08-11T07:08:33.959Z,3.50
2022-08-11T07:13:58.444Z,3.73
2022-08-11T07:19:26.466Z,3.33
2022-08-11T07:25:01.439Z,3.27
2022-08-11T07:30:09.267Z,3.20
2022-08-11T07:35:16.416Z,3.20
2022-08-11T07:40:23.971Z,2.97
2022-08-11T07:45:46.064Z,3.47
2022-08-11T07:51:07.835Z,2.90
2022-08-11T07:56:11.167Z,3.20
2022-08-11T08:01:41.320Z,2.73
2022-08-11T08:07:03.947Z,2.93
2022-08-11T08:12:27.006Z,2.73
2022-08-11T08:18:20.584Z,2.80
2022-08-11T08:23:14.616Z,3.37
2022-08-11T08:28:19.725Z,2.97
2022-08-11T08:33:42.150Z,3.07
2022-08-11T08:38:51.173Z,3.10
2022-08-11T08:44:14.944Z,2.90
2022-08-11T08:49:25.444Z,2.73
2022-08-11T08:54:37.092Z,3.00
2022-08-11T08:59:48.865Z,3.53
2022-08-11T09:04:52.768Z,2.87
2022-08-11T09:09:59.071Z,3.20
2022-08-11T09:15:05.452Z,2.53
2022-08-11T09:20:25.569Z,2.70
2022-08-11T09:25:50.205Z,2.67
2022-08-11T09:30:53.726Z,2.43
2022-08-11T09:35:57.308Z,2.50
2022-08-11T09:41:02.907Z,2.43
2022-08-11T09:46:07.065Z,2.40
2022-08-11T09:51:10.652Z,2.30
2022-08-11T09:56:37.662Z,2.10
2022-08-11T10:01:47.309Z,2.50
2022-08-11T10:07:04.191Z,2.00
2022-08-11T10:12:33.186Z,2.60
2022-08-11T10:17:39.409Z,2.13
2022-08-11T10:23:01.598Z,2.50
2022-08-11T10:28:28.982Z,2.20
2022-08-11T10:33:57.499Z,1.95
2022-08-11T10:39:05.191Z,2.10
2022-08-11T10:44:10.477Z,2.28
2022-08-11T10:49:13.408Z,2.40
2022-08-11T10:54:34.990Z,2.33
2022-08-11T10:59:38.015Z,2.10
2022-08-11T11:04:51.580Z,2.40
2022-08-11T11:10:02.414Z,2.20
2022-08-11T11:15:25.541Z,2.20
2022-08-11T11:20:37.833Z,2.25
2022-08-11T11:26:06.678Z,2.00
2022-08-11T11:31:44.628Z,2.17
2022-08-11T11:36:58.631Z,2.10
2022-08-11T11:42:04.888Z,2.00
2022-08-11T11:47:08.277Z,1.90
2022-08-11T11:52:21.921Z,2.10
2022-08-11T11:58:02.752Z,2.30
2022-08-11T12:03:11.485Z,2.45
2022-08-11T12:08:16.501Z,2.05
2022-08-11T12:13:38.371Z,2.35
2022-08-11T12:18:43.245Z,2.15
2022-08-11T12:24:07.636Z,1.98
2022-08-11T12:29:14.837Z,2.20
2022-08-11T12:34:18.264Z,2.22
2022-08-11T12:40:15.706Z,2.25
2022-08-11T12:45:28.124Z,2.15
2022-08-11T12:50:52.908Z,2.30
2022-08-11T12:56:16.334Z,2.63
2022-08-11T13:01:38.095Z,2.58
2022-08-11T13:06:42.435Z,2.50
2022-08-11T13:12:04.223Z,2.63
2022-08-11T13:17:21.669Z,2.45
2022-08-11T13:22:47.042Z,2.65
2022-08-11T13:32:59.682Z,2.78
2022-08-11T13:38:17.976Z,2.30
2022-08-11T13:43:23.452Z,2.40
2022-08-11T13:48:28.376Z,2.50
2022-08-11T13:53:32.570Z,2.58
2022-08-11T13:58:40.013Z,2.05
2022-08-11T14:04:29.734Z,2.10
2022-08-11T14:09:09.780Z,2.22
2022-08-11T14:14:18.907Z,2.47
2022-08-11T14:19:24.476Z,2.20
2022-08-11T14:24:27.575Z,2.60
2022-08-11T14:29:32.516Z,2.55
2022-08-11T14:34:50.165Z,2.00
2022-08-11T14:40:03.877Z,2.55
2022-08-11T14:45:27.671Z,2.80
2022-08-11T14:50:50.604Z,2.55
2022-08-11T14:56:12.972Z,2.65
2022-08-11T15:01:33.811Z,2.35
2022-08-11T15:06:37.295Z,2.50
2022-08-11T15:11:59.064Z,2.47
2022-08-11T15:17:07.809Z,2.15
2022-08-11T15:22:29.252Z,2.40
2022-08-11T15:27:53.143Z,2.58
2022-08-11T15:33:15.133Z,2.78
2022-08-11T15:38:19.799Z,2.60
2022-08-11T15:43:46.399Z,2.55
2022-08-11T15:48:57.787Z,2.50
2022-08-11T15:54:09.270Z,2.70
2022-08-11T15:59:42.134Z,2.47
2022-08-11T16:04:47.437Z,3.10
2022-08-11T16:10:02.985Z,2.50
2022-08-11T16:15:29.037Z,2.40
2022-08-11T16:20:32.611Z,2.40
2022-08-11T16:27:03.825Z,2.50
2022-08-11T16:30:59.139Z,2.60
2022-08-11T16:36:21.512Z,2.85
2022-08-11T16:41:44.981Z,2.85
2022-08-11T16:47:00.465Z,2.58
2022-08-11T16:52:05.314Z,2.80
2022-08-11T16:57:42.682Z,2.65
2022-08-11T17:03:07.999Z,2.50
2022-08-11T17:08:29.396Z,2.55
2022-08-11T17:13:46.567Z,2.75
2022-08-11T17:19:15.145Z,2.83
2022-08-11T17:24:17.855Z,2.70
2022-08-11T17:29:24.509Z,2.67
2022-08-11T17:34:46.535Z,2.60
2022-08-11T17:39:50.640Z,2.70
2022-08-11T17:45:13.350Z,2.53
2022-08-11T17:50:18.217Z,2.70
2022-08-11T17:55:55.027Z,2.42
2022-08-11T18:01:02.015Z,2.58
2022-08-11T18:06:13.946Z,2.30
2022-08-11T18:12:11.239Z,2.78
2022-08-11T18:17:16.780Z,2.90
2022-08-11T18:22:43.195Z,2.50
2022-08-11T18:28:06.987Z,2.80
2022-08-11T18:34:03.462Z,3.10
2022-08-11T18:39:11.348Z,2.90
2022-08-11T18:44:34.345Z,3.20
2022-08-11T18:50:03.606Z,2.83
2022-08-11T18:55:35.814Z,2.60
2022-08-11T19:00:59.033Z,3.30
2022-08-11T19:06:39.504Z,3.00
2022-08-11T19:12:03.428Z,2.60
2022-08-11T19:17:45.126Z,2.83
2022-08-11T19:23:08.022Z,2.87
2022-08-11T19:28:30.914Z,2.50
2022-08-11T19:34:00.340Z,2.90
2022-08-11T19:39:32.663Z,3.10
2022-08-11T19:44:54.187Z,3.00
2022-08-11T19:50:20.169Z,3.10
2022-08-11T19:55:46.699Z,3.00
2022-08-11T20:01:08.070Z,3.33
2022-08-11T20:06:30.302Z,3.40
2022-08-11T20:12:01.271Z,2.80
2022-08-11T20:17:23.065Z,3.37
2022-08-11T20:22:46.461Z,2.87
2022-08-11T20:28:08.450Z,2.87
2022-08-11T20:33:30.001Z,3.17
2022-08-11T20:38:51.827Z,3.07
2022-08-11T20:44:15.142Z,2.87
2022-08-11T20:49:45.039Z,3.00
2022-08-11T20:55:19.077Z,3.00
2022-08-11T21:00:47.313Z,3.13
2022-08-11T21:06:11.093Z,2.90
2022-08-11T21:11:34.552Z,3.30
2022-08-11T21:16:56.516Z,3.03
2022-08-11T21:22:21.356Z,3.30
2022-08-11T21:27:52.086Z,3.07
2022-08-11T21:33:13.665Z,3.10
2022-08-11T21:38:36.226Z,3.10
2022-08-11T21:43:59.004Z,3.00
2022-08-11T21:49:20.785Z,3.50
2022-08-11T21:54:43.819Z,3.77
2022-08-11T22:00:13.831Z,3.40
2022-08-11T22:05:36.025Z,3.53
2022-08-11T22:10:57.651Z,3.20
2022-08-11T22:16:19.147Z,3.47
2022-08-11T22:22:01.244Z,2.87
2022-08-11T22:27:22.886Z,3.30
2022-08-11T22:32:44.816Z,3.07
2022-08-11T22:38:06.646Z,3.30
2022-08-11T22:43:27.565Z,3.20
2022-08-11T22:48:49.970Z,3.47
2022-08-11T22:54:12.797Z,3.23
2022-08-11T22:59:35.632Z,3.77
2022-08-11T23:04:57.646Z,3.17
2022-08-11T23:10:18.987Z,3.47
2022-08-11T23:15:41.098Z,3.83
2022-08-11T23:21:04.182Z,3.90
2022-08-11T23:26:26.401Z,3.83
2022-08-11T23:31:53.470Z,3.73
2022-08-11T23:37:14.662Z,3.80
2022-08-11T23:42:36.237Z,3.57
2022-08-11T23:47:59.899Z,3.53
2022-08-11T23:53:21.577Z,3.83
2022-08-11T23:58:42.550Z,3.70
